Time;durP1;ratioP1;P1;durP2;ratioP2;P2;SDS_P1;SDS_P2;PMS_P1;PMS_P2;Temp;Humidity;BMP_temperature;BMP_pressure;BME280_temperature;BME280_humidity;BME280_pressure;Samples;Min_cycle;Max_cycle;Signal;HPM_P1;HPM_P2
2022/12/19 00:01:15;;;;;;;45.10;17.80;;;-1.80;1.00;;;;;;5051308;28;20421;-54
2022/12/19 00:03:45;;;;;;;37.97;16.57;;;-1.90;1.00;;;;;;5035541;28;20228;-54
2022/12/19 00:06:11;;;;;;;32.77;15.57;;;-1.90;1.00;;;;;;5021472;28;20456;-53
2022/12/19 00:08:39;;;;;;;37.80;17.20;;;-2.00;1.00;;;;;;5049864;28;20540;-54
2022/12/19 00:11:05;;;;;;;35.00;16.23;;;-2.00;1.00;;;;;;5050110;28;20472;-54
2022/12/19 00:13:31;;;;;;;36.20;16.67;;;-2.00;1.00;;;;;;5051198;28;20417;-54
2022/12/19 00:16:10;;;;;;;41.00;17.73;;;-2.00;1.00;;;;;;5050503;28;20436;-53
2022/12/19 00:18:38;;;;;;;39.83;18.23;;;-1.90;1.00;;;;;;5051010;28;20415;-53
2022/12/19 00:21:04;;;;;;;33.27;16.50;;;-1.90;1.00;;;;;;5048925;28;20946;-53
2022/12/19 00:23:32;;;;;;;39.30;17.73;;;-1.90;1.00;;;;;;5033569;28;20422;-53
2022/12/19 00:26:26;;;;;;;35.83;17.17;;;-2.00;1.00;;;;;;5040658;28;20798;-53
2022/12/19 00:28:57;;;;;;;38.87;17.10;;;-2.00;1.00;;;;;;5040434;28;20479;-53
2022/12/19 00:31:24;;;;;;;33.90;16.83;;;-2.00;1.00;;;;;;5051152;28;20829;-53
2022/12/19 00:33:50;;;;;;;42.07;16.63;;;-1.90;1.00;;;;;;5054799;28;20441;-53
2022/12/19 00:36:21;;;;;;;52.37;17.20;;;-1.90;1.00;;;;;;5057867;28;21134;-53
2022/12/19 00:38:47;;;;;;;34.27;17.17;;;-1.90;1.00;;;;;;5049652;28;20202;-53
2022/12/19 00:41:19;;;;;;;39.37;16.90;;;-1.90;1.00;;;;;;5037739;28;20734;-53
2022/12/19 00:44:05;;;;;;;35.10;17.00;;;-1.80;1.00;;;;;;5045606;28;20484;-53
2022/12/19 00:46:31;;;;;;;40.27;18.03;;;-1.80;1.00;;;;;;5057230;28;20436;-53
2022/12/19 00:48:58;;;;;;;34.83;16.57;;;-1.90;1.00;;;;;;5057443;28;20779;-54
2022/12/19 00:51:27;;;;;;;39.63;17.17;;;-1.80;1.00;;;;;;5057148;28;20502;-53
2022/12/19 00:53:54;;;;;;;39.30;17.50;;;-1.90;1.00;;;;;;5057498;28;20440;-53
2022/12/19 00:56:22;;;;;;;34.87;16.83;;;-1.80;1.00;;;;;;5044868;28;20425;-53
2022/12/19 00:58:48;;;;;;;36.60;17.17;;;-1.80;1.00;;;;;;5036634;28;20413;-53
2022/12/19 01:01:20;;;;;;;35.80;16.57;;;-1.70;1.00;;;;;;5037697;28;20872;-53
2022/12/19 01:03:46;;;;;;;39.30;18.30;;;-1.80;1.00;;;;;;5051385;28;20887;-54
2022/12/19 01:06:12;;;;;;;35.83;16.30;;;-1.70;1.00;;;;;;5057186;28;20463;-53
2022/12/19 01:08:38;;;;;;;34.97;16.60;;;-1.70;1.00;;;;;;5057373;28;20455;-53
2022/12/19 01:11:05;;;;;;;36.13;17.40;;;-1.70;1.00;;;;;;5051355;28;20897;-53
2022/12/19 01:13:32;;;;;;;33.57;16.13;;;-1.60;1.00;;;;;;5056588;28;20229;-53
2022/12/19 01:16:16;;;;;;;36.93;17.63;;;-1.60;1.00;;;;;;5057045;28;20423;-54
2022/12/19 01:18:41;;;;;;;32.57;16.47;;;-1.60;1.00;;;;;;5057156;28;20443;-53
2022/12/19 01:21:09;;;;;;;47.90;17.33;;;-1.60;1.00;;;;;;5057191;28;20452;-53
2022/12/19 01:23:35;;;;;;;33.93;16.43;;;-1.60;1.00;;;;;;5057235;28;20210;-53
2022/12/19 01:26:01;;;;;;;34.50;16.80;;;-1.60;1.00;;;;;;5056766;28;20475;-53
2022/12/19 01:28:27;;;;;;;40.07;16.10;;;-1.60;1.00;;;;;;5056964;28;20424;-53
2022/12/19 01:30:55;;;;;;;38.77;17.43;;;-1.60;1.00;;;;;;5056849;28;20214;-53
2022/12/19 01:33:21;;;;;;;38.33;16.63;;;-1.60;1.00;;;;;;5056773;28;20198;-54
2022/12/19 01:35:47;;;;;;;32.40;15.63;;;-1.60;1.00;;;;;;5046823;28;20441;-53
2022/12/19 01:38:15;;;;;;;30.40;15.90;;;-1.60;1.00;;;;;;5055893;28;20236;-53
2022/12/19 01:40:56;;;;;;;32.20;16.20;;;-1.60;1.00;;;;;;5056309;28;20468;-54
2022/12/19 01:43:24;;;;;;;31.87;16.63;;;-1.60;1.00;;;;;;5051286;28;20435;-55
2022/12/19 01:46:04;;;;;;;35.33;16.03;;;-1.60;1.00;;;;;;5044690;28;20432;-53
2022/12/19 01:48:35;;;;;;;37.20;16.90;;;-1.60;1.00;;;;;;5052085;28;20436;-53
2022/12/19 01:51:05;;;;;;;30.23;15.87;;;-1.60;1.00;;;;;;5053362;28;20453;-54
2022/12/19 01:53:36;;;;;;;33.40;16.33;;;-1.60;1.00;;;;;;5052540;28;20907;-53
2022/12/19 01:56:05;;;;;;;35.10;17.50;;;-1.50;1.00;;;;;;5051560;28;20413;-53
2022/12/19 01:58:30;;;;;;;38.80;17.10;;;-1.50;1.00;;;;;;5051630;28;20565;-54
2022/12/19 02:00:57;;;;;;;33.10;16.17;;;-1.50;1.00;;;;;;5051866;28;20547;-57
2022/12/19 02:03:28;;;;;;;37.27;17.70;;;-1.50;1.00;;;;;;5044246;28;20194;-53
2022/12/19 02:05:54;;;;;;;36.70;17.07;;;-1.50;1.00;;;;;;5055818;28;20428;-54
2022/12/19 02:08:22;;;;;;;41.83;17.60;;;-1.50;1.00;;;;;;5051938;28;20437;-54
2022/12/19 02:10:48;;;;;;;32.33;15.87;;;-1.50;1.00;;;;;;5052053;28;20462;-53
2022/12/19 02:13:14;;;;;;;35.17;15.87;;;-1.50;1.00;;;;;;5052253;28;20443;-54
2022/12/19 02:16:15;;;;;;;32.97;16.27;;;-1.40;1.00;;;;;;5051738;28;20174;-54
2022/12/19 02:19:08;;;;;;;32.67;15.80;;;-1.40;1.00;;;;;;5038858;28;20494;-53
2022/12/19 02:21:43;;;;;;;33.83;15.80;;;-1.30;1.00;;;;;;5040098;28;20464;-53
2022/12/19 02:24:36;;;;;;;33.33;15.57;;;-1.30;1.00;;;;;;5050081;28;20930;-53
2022/12/19 02:27:13;;;;;;;31.77;16.30;;;-1.30;1.00;;;;;;5043172;28;20440;-53
2022/12/19 02:29:47;;;;;;;35.23;16.70;;;-1.20;1.00;;;;;;5036655;28;20479;-53
2022/12/19 02:32:27;;;;;;;40.00;16.07;;;-1.20;1.00;;;;;;5038671;28;20811;-54
2022/12/19 02:35:18;;;;;;;34.40;16.57;;;-1.20;1.00;;;;;;5048720;28;20914;-54
2022/12/19 02:37:49;;;;;;;36.30;16.43;;;-1.20;1.00;;;;;;5049792;28;20503;-54
2022/12/19 02:40:28;;;;;;;29.73;15.33;;;-1.20;1.00;;;;;;5047087;28;20907;-54
2022/12/19 02:42:58;;;;;;;38.73;16.50;;;-1.20;1.00;;;;;;5050102;28;20436;-53
2022/12/19 02:45:30;;;;;;;34.27;17.13;;;-1.20;1.00;;;;;;5046390;28;20436;-53
2022/12/19 02:47:58;;;;;;;33.83;15.90;;;-1.20;1.00;;;;;;5050757;28;20413;-53
2022/12/19 02:50:24;;;;;;;31.63;15.73;;;-1.20;1.00;;;;;;5050391;28;20512;-53
2022/12/19 02:52:50;;;;;;;39.10;16.00;;;-1.30;1.00;;;;;;5049405;28;20508;-54
2022/12/19 02:55:20;;;;;;;38.47;17.57;;;-1.20;1.00;;;;;;5046643;28;20239;-53
2022/12/19 02:58:09;;;;;;;32.93;16.93;;;-1.20;1.00;;;;;;5047993;28;20656;-53
2022/12/19 03:00:54;;;;;;;30.00;16.70;;;-1.20;1.00;;;;;;5041108;28;20855;-53
2022/12/19 03:03:47;;;;;;;36.47;16.80;;;-1.30;1.00;;;;;;5047737;28;20995;-53
2022/12/19 03:06:30;;;;;;;39.97;16.93;;;-1.20;1.00;;;;;;5047080;28;20472;-53
2022/12/19 03:09:18;;;;;;;33.07;15.33;;;-1.20;1.00;;;;;;5042948;28;21045;-53
2022/12/19 03:11:48;;;;;;;35.77;16.90;;;-1.20;1.00;;;;;;5048069;28;20472;-53
2022/12/19 03:14:18;;;;;;;41.00;16.77;;;-1.20;1.00;;;;;;5031261;28;20961;-53
2022/12/19 03:16:44;;;;;;;36.20;17.30;;;-1.20;1.00;;;;;;5050377;28;20444;-53
2022/12/19 03:19:13;;;;;;;38.07;17.43;;;-1.10;1.00;;;;;;5051239;28;20444;-54
2022/12/19 03:21:48;;;;;;;31.20;16.10;;;-1.10;1.00;;;;;;5045008;28;20608;-54
2022/12/19 03:24:15;;;;;;;35.50;16.97;;;-1.10;1.00;;;;;;5048578;28;20472;-53
2022/12/19 03:26:56;;;;;;;32.97;17.10;;;-1.10;1.00;;;;;;5050123;28;20622;-53
2022/12/19 03:29:32;;;;;;;30.87;16.77;;;-1.20;1.00;;;;;;5031732;28;20447;-54
2022/12/19 03:32:02;;;;;;;36.00;17.47;;;-1.10;1.00;;;;;;5051799;28;21339;-54
2022/12/19 03:34:38;;;;;;;37.90;17.47;;;-1.20;1.00;;;;;;5048141;28;20436;-53
2022/12/19 03:37:10;;;;;;;33.07;15.33;;;-1.10;1.00;;;;;;5050071;28;20436;-54
2022/12/19 03:39:37;;;;;;;37.10;16.77;;;-1.10;3.30;;;;;;5050690;28;20525;-53
2022/12/19 03:44:52;;;;;;;31.53;15.93;;;-1.00;26.90;;;;;;5049908;28;20982;-53
2022/12/19 03:47:30;;;;;;;37.83;17.90;;;-1.00;34.30;;;;;;5052448;28;20866;-54
2022/12/19 03:49:55;;;;;;;41.73;18.33;;;-1.00;69.10;;;;;;5047006;28;20440;-53
2022/12/19 03:52:43;;;;;;;37.57;17.50;;;-1.00;76.30;;;;;;5049951;28;20877;-54
2022/12/19 03:55:25;;;;;;;33.47;16.90;;;-0.90;99.50;;;;;;5049080;28;20193;-53
2022/12/19 03:58:08;;;;;;;35.40;17.13;;;-0.90;99.90;;;;;;5052248;28;21248;-54
2022/12/19 04:00:36;;;;;;;32.30;16.80;;;-0.80;99.90;;;;;;5048313;28;20440;-53
2022/12/19 04:03:03;;;;;;;32.17;16.00;;;-0.90;99.90;;;;;;5047344;28;20511;-54
2022/12/19 04:05:29;;;;;;;34.40;17.00;;;-0.90;99.90;;;;;;5051149;28;20428;-54
2022/12/19 04:07:59;;;;;;;36.20;16.50;;;-0.90;99.90;;;;;;5050584;28;20895;-54
2022/12/19 04:10:27;;;;;;;37.00;17.80;;;-0.80;99.90;;;;;;5050888;28;20197;-54
2022/12/19 04:13:07;;;;;;;35.90;17.37;;;-0.80;99.90;;;;;;5028840;28;20448;-54
2022/12/19 04:16:00;;;;;;;31.70;17.13;;;-0.90;99.90;;;;;;5051172;28;20413;-53
2022/12/19 04:18:26;;;;;;;33.17;16.50;;;-0.80;99.90;;;;;;5018112;28;20841;-54
2022/12/19 04:21:00;;;;;;;36.97;17.40;;;-0.80;99.90;;;;;;5043845;28;20437;-53
2022/12/19 04:23:38;;;;;;;30.93;16.77;;;-0.80;99.90;;;;;;5048378;28;20190;-54
2022/12/19 04:26:04;;;;;;;40.57;17.70;;;-0.80;99.90;;;;;;5050875;28;20460;-53
2022/12/19 04:28:35;;;;;;;39.00;17.00;;;-0.80;99.90;;;;;;5054097;28;20428;-53
2022/12/19 04:31:01;;;;;;;32.47;17.03;;;-0.80;99.90;;;;;;5050599;28;20506;-54
2022/12/19 04:33:26;;;;;;;37.27;17.53;;;-0.80;99.90;;;;;;5045778;28;20513;-53
2022/12/19 04:35:53;;;;;;;31.50;16.37;;;-0.70;99.90;;;;;;5050356;28;20413;-53
2022/12/19 04:38:21;;;;;;;32.60;17.80;;;-0.70;99.90;;;;;;5050233;28;20186;-54
2022/12/19 04:40:47;;;;;;;38.63;17.60;;;-0.70;99.90;;;;;;5043925;28;20449;-54
2022/12/19 04:43:12;;;;;;;36.80;17.13;;;-0.80;99.90;;;;;;5049442;28;20452;-54
2022/12/19 04:45:40;;;;;;;34.37;18.07;;;-0.70;1.00;;;;;;5049334;28;20198;-54
2022/12/19 04:48:06;;;;;;;39.40;17.87;;;-0.80;1.00;;;;;;5048971;28;20813;-53
2022/12/19 04:50:33;;;;;;;39.57;18.10;;;-0.70;1.00;;;;;;5049357;28;20444;-53
2022/12/19 04:52:59;;;;;;;33.17;16.67;;;-0.70;1.00;;;;;;5049181;28;20183;-54
2022/12/19 04:55:25;;;;;;;37.00;17.50;;;-0.60;1.00;;;;;;5035347;28;20519;-53
2022/12/19 04:57:50;;;;;;;37.73;16.63;;;-0.60;1.00;;;;;;5044910;28;20567;-54
2022/12/19 05:00:16;;;;;;;32.47;16.83;;;-0.60;1.00;;;;;;5050087;28;20515;-53
2022/12/19 05:02:42;;;;;;;32.87;16.90;;;-0.60;1.00;;;;;;5041871;28;20191;-54
2022/12/19 05:05:08;;;;;;;40.40;18.00;;;-0.50;1.00;;;;;;5048417;28;20186;-53
2022/12/19 05:07:33;;;;;;;39.30;18.90;;;-0.60;1.00;;;;;;5048739;28;20746;-54
2022/12/19 05:09:59;;;;;;;37.53;16.43;;;-0.50;1.00;;;;;;5049484;28;20200;-54
2022/12/19 05:12:24;;;;;;;35.03;16.90;;;-0.60;1.00;;;;;;5049257;28;20218;-53
2022/12/19 05:14:50;;;;;;;36.40;16.73;;;-0.60;1.00;;;;;;5044437;28;20182;-53
2022/12/19 05:17:15;;;;;;;33.57;17.10;;;-0.60;1.00;;;;;;5048877;28;20190;-54
2022/12/19 05:19:41;;;;;;;38.47;18.00;;;-0.50;1.00;;;;;;5051177;28;20186;-53
2022/12/19 05:22:07;;;;;;;40.57;16.43;;;-0.50;1.00;;;;;;5053569;28;20194;-54
2022/12/19 05:24:32;;;;;;;33.33;18.03;;;-0.40;1.00;;;;;;5053275;28;20722;-54
2022/12/19 05:26:58;;;;;;;30.50;16.07;;;-0.40;1.00;;;;;;5052541;28;20202;-54
2022/12/19 05:29:23;;;;;;;33.47;16.80;;;-0.50;1.00;;;;;;5053287;28;20194;-54
2022/12/19 05:31:49;;;;;;;38.97;16.17;;;-0.40;69.00;;;;;;5053045;28;20217;-54
2022/12/19 05:34:15;;;;;;;34.53;17.30;;;-0.40;99.90;;;;;;5042194;28;20190;-53
2022/12/19 05:36:40;;;;;;;37.57;18.60;;;-0.40;99.90;;;;;;5034118;28;20242;-54
2022/12/19 05:39:06;;;;;;;34.53;17.80;;;-0.40;99.90;;;;;;5050440;28;20183;-54
2022/12/19 05:41:32;;;;;;;33.50;17.67;;;-0.40;99.90;;;;;;5053141;28;20297;-54
2022/12/19 05:43:57;;;;;;;36.23;17.30;;;-0.30;1.00;;;;;;5052401;28;20194;-54
2022/12/19 05:46:24;;;;;;;33.30;16.70;;;-0.30;1.00;;;;;;5035101;28;20190;-54
2022/12/19 05:48:50;;;;;;;40.70;18.00;;;-0.30;1.00;;;;;;5053197;28;20206;-54
2022/12/19 05:51:16;;;;;;;35.30;17.37;;;-0.20;1.00;;;;;;5053816;28;20464;-55
2022/12/19 05:53:42;;;;;;;38.83;17.40;;;-0.10;1.00;;;;;;5053038;28;20440;-54
2022/12/19 05:56:14;;;;;;;33.63;17.40;;;-0.10;1.00;;;;;;5053052;28;20231;-54
2022/12/19 05:58:40;;;;;;;35.13;17.17;;;-0.10;1.00;;;;;;5052556;28;20452;-53
2022/12/19 06:01:09;;;;;;;36.73;17.47;;;-0.10;1.00;;;;;;5044757;28;20459;-54
2022/12/19 06:03:35;;;;;;;38.33;18.40;;;-0.10;1.00;;;;;;5051433;28;20467;-54
2022/12/19 06:06:05;;;;;;;37.27;16.33;;;0.00;1.00;;;;;;5052637;28;20455;-53
2022/12/19 06:08:31;;;;;;;35.60;17.97;;;0.00;1.00;;;;;;5052190;28;20451;-54
2022/12/19 06:11:01;;;;;;;34.67;17.13;;;0.10;1.00;;;;;;5053125;28;20456;-54
2022/12/19 06:13:28;;;;;;;42.47;19.27;;;0.10;1.00;;;;;;5034832;28;20186;-54
2022/12/19 06:16:05;;;;;;;33.27;17.20;;;0.10;1.00;;;;;;5051906;28;20479;-54
2022/12/19 06:18:31;;;;;;;31.47;16.97;;;0.10;1.00;;;;;;5050782;28;20813;-54
2022/12/19 06:21:02;;;;;;;35.90;18.03;;;0.10;1.00;;;;;;5042137;28;20448;-54
2022/12/19 06:23:30;;;;;;;37.60;18.00;;;0.10;95.40;;;;;;5035095;28;20190;-53
2022/12/19 06:26:00;;;;;;;37.67;18.20;;;0.20;99.90;;;;;;5053010;28;20519;-54
2022/12/19 06:28:28;;;;;;;33.13;17.20;;;0.20;99.90;;;;;;5050631;28;20942;-54
2022/12/19 06:31:02;;;;;;;39.23;19.07;;;0.30;99.90;;;;;;5051982;28;20463;-54
2022/12/19 06:33:28;;;;;;;35.37;18.23;;;0.30;99.90;;;;;;5051351;28;20809;-54
2022/12/19 06:35:58;;;;;;;35.57;17.57;;;0.30;99.90;;;;;;5045962;28;20421;-54
2022/12/19 06:38:25;;;;;;;40.40;18.20;;;0.30;99.90;;;;;;5052074;28;20437;-54
2022/12/19 06:43:35;;;;;;;37.03;17.53;;;0.40;99.90;;;;;;5051260;28;20456;-53
2022/12/19 06:46:00;;;;;;;40.90;17.03;;;0.50;99.90;;;;;;5043544;28;20438;-54
2022/12/19 06:48:27;;;;;;;40.83;18.40;;;0.50;99.90;;;;;;5045097;28;20239;-53
2022/12/19 06:50:52;;;;;;;32.70;15.80;;;0.50;99.90;;;;;;5051890;28;20219;-54
2022/12/19 06:53:18;;;;;;;34.97;17.63;;;0.50;99.90;;;;;;5051361;28;20448;-54
2022/12/19 06:55:46;;;;;;;33.70;16.07;;;0.60;99.90;;;;;;5052835;28;20191;-54
2022/12/19 06:58:12;;;;;;;34.90;16.50;;;0.60;99.90;;;;;;5052133;28;20194;-54
2022/12/19 07:00:37;;;;;;;34.47;17.07;;;0.60;99.90;;;;;;5055713;28;20440;-54
2022/12/19 07:03:07;;;;;;;38.97;16.77;;;0.60;99.90;;;;;;5049349;28;20251;-54
2022/12/19 07:05:33;;;;;;;29.63;15.77;;;0.60;99.90;;;;;;5049691;28;20182;-54
2022/12/19 07:07:59;;;;;;;34.30;16.83;;;0.60;1.00;;;;;;5051240;28;20444;-54
2022/12/19 07:10:24;;;;;;;33.50;16.83;;;0.70;1.00;;;;;;5050961;28;20667;-55
2022/12/19 07:12:50;;;;;;;33.87;16.97;;;0.70;1.00;;;;;;5051712;28;20437;-53
2022/12/19 07:15:16;;;;;;;37.70;17.10;;;0.70;1.00;;;;;;5051480;28;20193;-54
2022/12/19 07:17:42;;;;;;;35.03;16.77;;;0.70;1.00;;;;;;5051694;28;20254;-54
2022/12/19 07:20:08;;;;;;;33.07;16.13;;;0.70;99.90;;;;;;5049154;28;20240;-54
2022/12/19 07:22:34;;;;;;;32.70;16.50;;;0.80;99.90;;;;;;5050969;28;20441;-54
2022/12/19 07:25:02;;;;;;;38.40;17.00;;;0.90;99.90;;;;;;5051935;28;21000;-54
2022/12/19 07:27:28;;;;;;;32.93;16.13;;;0.80;99.90;;;;;;5048024;28;20444;-54
2022/12/19 07:29:53;;;;;;;31.60;15.47;;;0.90;99.90;;;;;;5051335;28;20463;-54
2022/12/19 07:32:20;;;;;;;32.83;15.43;;;0.80;99.90;;;;;;5049559;28;20476;-54
2022/12/19 07:34:46;;;;;;;33.63;15.93;;;0.90;1.00;;;;;;5050566;28;20186;-54
2022/12/19 07:37:12;;;;;;;31.43;16.57;;;0.90;1.00;;;;;;5048434;28;20436;-54
2022/12/19 07:39:38;;;;;;;33.37;16.70;;;0.90;1.00;;;;;;5049555;28;20190;-54
2022/12/19 07:42:04;;;;;;;31.50;16.57;;;0.90;1.00;;;;;;5036605;28;20186;-54
2022/12/19 07:44:30;;;;;;;34.20;15.43;;;0.90;1.00;;;;;;5049323;28;20531;-54
2022/12/19 07:46:56;;;;;;;31.40;15.57;;;0.90;99.20;;;;;;5049263;28;20284;-54
2022/12/19 07:49:22;;;;;;;32.07;17.07;;;1.00;1.00;;;;;;5044884;28;20194;-53
2022/12/19 07:51:47;;;;;;;34.20;16.00;;;1.00;1.00;;;;;;5049733;28;20473;-53
2022/12/19 07:54:13;;;;;;;35.90;17.03;;;1.00;99.90;;;;;;5051008;28;20849;-54
2022/12/19 07:56:39;;;;;;;38.17;18.43;;;1.00;1.00;;;;;;5050214;28;20186;-54
2022/12/19 07:59:04;;;;;;;35.37;16.53;;;1.10;1.00;;;;;;5044245;28;20656;-54
2022/12/19 08:01:30;;;;;;;31.47;17.07;;;1.10;1.00;;;;;;5049626;28;20628;-54
2022/12/19 08:03:56;;;;;;;36.10;17.67;;;1.10;1.00;;;;;;5042868;28;20205;-54
2022/12/19 08:06:22;;;;;;;34.90;18.00;;;1.10;1.00;;;;;;5051423;28;20297;-54
2022/12/19 08:08:48;;;;;;;34.30;17.23;;;1.10;84.10;;;;;;5048001;28;20447;-54
2022/12/19 08:11:16;;;;;;;41.10;18.53;;;1.20;11.40;;;;;;5051131;28;20559;-54
2022/12/19 08:13:42;;;;;;;40.17;17.87;;;1.10;1.00;;;;;;5049770;28;20198;-54
2022/12/19 08:16:09;;;;;;;39.03;17.10;;;1.20;99.90;;;;;;5049600;28;20773;-54
2022/12/19 08:18:34;;;;;;;37.80;17.60;;;1.20;1.00;;;;;;5042008;28;20961;-55
2022/12/19 08:21:00;;;;;;;31.03;16.33;;;1.30;1.00;;;;;;5050190;28;20451;-54
2022/12/19 08:23:26;;;;;;;38.07;17.27;;;1.30;1.00;;;;;;5049882;28;20742;-54
2022/12/19 08:26:03;;;;;;;39.43;18.13;;;1.30;3.40;;;;;;5050709;28;20244;-54
2022/12/19 08:28:29;;;;;;;40.00;19.07;;;1.30;99.90;;;;;;5049030;28;20206;-54
2022/12/19 08:30:55;;;;;;;43.63;20.90;;;1.40;99.90;;;;;;5050164;28;20468;-54
2022/12/19 08:33:21;;;;;;;39.60;18.10;;;1.40;99.90;;;;;;5040907;28;20452;-54
2022/12/19 08:35:47;;;;;;;37.60;18.60;;;1.40;99.90;;;;;;5048217;28;20648;-53
2022/12/19 08:38:12;;;;;;;35.53;16.93;;;1.50;99.90;;;;;;5049609;28;20448;-53
2022/12/19 08:40:38;;;;;;;37.23;18.53;;;1.50;99.90;;;;;;5051456;28;20307;-54
2022/12/19 08:43:03;;;;;;;40.33;19.17;;;1.50;99.90;;;;;;5049007;28;20194;-54
2022/12/19 08:45:29;;;;;;;39.10;19.80;;;1.50;99.90;;;;;;5047769;28;20276;-53
2022/12/19 08:47:55;;;;;;;42.47;18.10;;;1.50;99.90;;;;;;5047062;28;20193;-54
2022/12/19 08:50:21;;;;;;;38.77;19.37;;;1.50;1.00;;;;;;5032195;28;20202;-53
2022/12/19 08:52:47;;;;;;;37.20;18.40;;;1.50;1.00;;;;;;5049276;28;20468;-53
2022/12/19 08:55:12;;;;;;;46.03;22.85;;;1.50;1.00;;;;;;5044971;28;20435;-53
2022/12/19 08:57:38;;;;;;;47.23;22.57;;;1.50;1.00;;;;;;5045965;28;20897;-54
2022/12/19 09:00:05;;;;;;;40.27;20.13;;;1.50;1.00;;;;;;5054460;28;20854;-53
2022/12/19 09:02:30;;;;;;;45.43;20.27;;;1.60;1.00;;;;;;5054421;28;20641;-54
2022/12/19 09:04:56;;;;;;;42.17;20.30;;;1.60;1.00;;;;;;5052928;28;20455;-54
2022/12/19 09:07:22;;;;;;;37.20;18.67;;;1.60;1.00;;;;;;5052881;28;20221;-54
2022/12/19 09:09:47;;;;;;;42.80;19.60;;;1.60;1.00;;;;;;5051133;28;20285;-54
2022/12/19 09:12:14;;;;;;;44.33;20.60;;;1.60;1.00;;;;;;5053378;28;20302;-54
2022/12/19 09:14:40;;;;;;;44.70;19.30;;;1.70;1.00;;;;;;5051401;28;20182;-54
2022/12/19 09:17:06;;;;;;;42.00;19.43;;;1.80;1.00;;;;;;5054185;28;20427;-55
2022/12/19 09:19:32;;;;;;;42.50;19.50;;;1.80;1.00;;;;;;5054093;28;20228;-55
2022/12/19 09:21:58;;;;;;;41.73;20.17;;;1.80;1.00;;;;;;5053871;28;20387;-54
2022/12/19 09:24:23;;;;;;;46.90;21.90;;;1.80;1.00;;;;;;5050691;28;20971;-55
2022/12/19 09:26:49;;;;;;;39.30;20.27;;;1.80;1.00;;;;;;5052223;28;20449;-54
2022/12/19 09:29:14;;;;;;;37.93;19.57;;;1.90;1.00;;;;;;5053562;28;20194;-55
2022/12/19 09:31:40;;;;;;;43.77;19.80;;;1.90;1.00;;;;;;5053513;28;20249;-54
2022/12/19 09:34:05;;;;;;;42.67;20.17;;;2.00;1.00;;;;;;5054224;28;20174;-54
2022/12/19 09:36:31;;;;;;;44.53;20.00;;;1.90;1.00;;;;;;5045627;28;20195;-54
2022/12/19 09:38:58;;;;;;;45.20;20.60;;;1.90;1.00;;;;;;5053065;28;20187;-54
2022/12/19 09:41:53;;;;;;;40.47;19.87;;;1.90;1.00;;;;;;5054083;28;20197;-54
2022/12/19 09:44:25;;;;;;;41.20;18.63;;;1.90;1.00;;;;;;5053714;28;20440;-54
2022/12/19 09:46:57;;;;;;;46.83;21.93;;;2.00;1.00;;;;;;5053694;28;20565;-56
2022/12/19 09:49:32;;;;;;;38.27;18.67;;;2.00;1.00;;;;;;5053939;28;20501;-54
2022/12/19 09:52:16;;;;;;;43.78;20.48;;;2.10;1.00;;;;;;5035219;28;20440;-54
2022/12/19 09:54:50;;;;;;;40.00;20.47;;;2.20;1.00;;;;;;5053387;28;20186;-54
2022/12/19 09:57:54;;;;;;;37.63;18.90;;;2.20;1.00;;;;;;5051536;28;20790;-53
2022/12/19 10:00:21;;;;;;;40.80;19.50;;;2.20;1.00;;;;;;5036267;28;20548;-54
2022/12/19 10:02:58;;;;;;;37.93;20.10;;;2.10;1.00;;;;;;5052190;28;20460;-54
2022/12/19 10:05:38;;;;;;;37.00;18.43;;;2.20;1.00;;;;;;5051174;28;20462;-54
2022/12/19 10:08:18;;;;;;;40.50;19.27;;;2.30;1.00;;;;;;5051789;28;20509;-54
2022/12/19 10:11:03;;;;;;;44.97;20.73;;;2.30;1.00;;;;;;5052060;28;20543;-55
2022/12/19 10:13:59;;;;;;;39.03;18.30;;;2.30;1.00;;;;;;5048255;28;20440;-54
2022/12/19 10:16:46;;;;;;;36.53;17.57;;;2.30;1.00;;;;;;5049731;28;20464;-54
2022/12/19 10:19:37;;;;;;;36.10;18.00;;;2.40;1.00;;;;;;5052373;28;20783;-55
2022/12/19 10:22:25;;;;;;;36.50;18.60;;;2.40;1.00;;;;;;5050175;28;20432;-54
2022/12/19 10:24:59;;;;;;;39.77;20.63;;;2.40;1.00;;;;;;5051990;28;20483;-54
2022/12/19 10:27:32;;;;;;;40.87;19.33;;;2.40;1.00;;;;;;5053146;28;20491;-55
2022/12/19 10:30:19;;;;;;;37.20;19.20;;;2.40;1.00;;;;;;5051698;28;20438;-54
2022/12/19 10:33:40;;;;;;;40.33;18.10;;;2.40;1.00;;;;;;5049014;28;20480;-54
2022/12/19 10:36:09;;;;;;;34.90;18.00;;;2.50;4.00;;;;;;4979163;28;20497;-54
2022/12/19 10:39:01;;;;;;;38.00;17.97;;;2.50;8.90;;;;;;5038030;28;20455;-55
2022/12/19 10:41:30;;;;;;;36.50;18.00;;;2.50;14.50;;;;;;5033249;28;20460;-55
2022/12/19 10:44:08;;;;;;;39.93;18.70;;;2.50;17.40;;;;;;5045393;28;20445;-55
2022/12/19 10:46:37;;;;;;;34.77;17.70;;;2.60;22.80;;;;;;5051134;28;20437;-54
2022/12/19 10:49:24;;;;;;;37.70;18.90;;;2.60;27.60;;;;;;5032890;28;20420;-54
2022/12/19 10:51:59;;;;;;;38.73;19.00;;;2.60;29.50;;;;;;5050708;28;20821;-54
2022/12/19 10:54:39;;;;;;;40.50;19.17;;;2.60;30.00;;;;;;5052063;28;20443;-54
2022/12/19 10:57:29;;;;;;;43.23;19.87;;;2.70;34.00;;;;;;5051760;28;20439;-54
2022/12/19 11:00:13;;;;;;;35.10;19.00;;;2.70;38.30;;;;;;5052139;28;20535;-55
2022/12/19 11:02:42;;;;;;;38.37;19.37;;;2.70;38.00;;;;;;5050391;28;20539;-55
2022/12/19 11:05:24;;;;;;;36.17;18.17;;;2.70;40.30;;;;;;5052202;28;20450;-54
2022/12/19 11:08:14;;;;;;;35.67;17.60;;;2.80;41.80;;;;;;5064711;28;20453;-55
2022/12/19 11:10:42;;;;;;;37.83;17.93;;;2.80;41.60;;;;;;5048855;28;20444;-55
2022/12/19 11:13:25;;;;;;;34.33;17.93;;;2.80;41.80;;;;;;5049964;28;20437;-55
2022/12/19 11:15:57;;;;;;;45.50;20.43;;;2.80;46.40;;;;;;5053282;28;20441;-56
2022/12/19 11:18:32;;;;;;;35.87;18.93;;;2.90;49.10;;;;;;5051312;28;20409;-54
2022/12/19 11:21:25;;;;;;;42.50;18.50;;;2.90;51.00;;;;;;5046898;28;20487;-54
2022/12/19 11:23:55;;;;;;;40.00;17.80;;;3.00;56.10;;;;;;5051563;28;20906;-54
2022/12/19 11:26:33;;;;;;;37.30;18.00;;;3.00;57.30;;;;;;5045844;28;20488;-54
2022/12/19 11:29:15;;;;;;;40.17;20.20;;;3.00;60.60;;;;;;5043046;28;20475;-54
2022/12/19 11:31:42;;;;;;;37.93;18.53;;;3.00;62.00;;;;;;5050887;28;20484;-54
2022/12/19 11:34:22;;;;;;;34.43;18.20;;;3.00;62.70;;;;;;5050650;28;20910;-54
2022/12/19 11:37:20;;;;;;;36.90;17.80;;;3.00;67.20;;;;;;5047390;28;20453;-54
2022/12/19 11:40:09;;;;;;;37.83;18.00;;;3.00;76.60;;;;;;5046101;28;20447;-54
2022/12/19 11:43:11;;;;;;;38.17;19.30;;;3.10;86.00;;;;;;5037074;28;20843;-54
2022/12/19 11:45:59;;;;;;;37.60;19.00;;;3.10;91.80;;;;;;5028477;28;20504;-54
2022/12/19 11:48:30;;;;;;;37.57;19.70;;;3.20;96.90;;;;;;5050075;28;20448;-54
2022/12/19 11:51:04;;;;;;;38.20;18.70;;;3.20;98.20;;;;;;5051253;28;20456;-54
2022/12/19 11:53:37;;;;;;;34.60;18.57;;;3.20;99.90;;;;;;5050741;28;20514;-54
2022/12/19 11:56:12;;;;;;;37.70;19.57;;;3.30;99.90;;;;;;5051321;28;20409;-54
2022/12/19 11:58:38;;;;;;;41.80;20.00;;;3.30;99.90;;;;;;5050353;28;20506;-54
2022/12/19 12:01:26;;;;;;;41.77;19.73;;;3.30;99.90;;;;;;5051244;28;20421;-54
2022/12/19 12:03:59;;;;;;;39.83;19.77;;;3.30;99.90;;;;;;5050875;28;20209;-54
2022/12/19 12:06:33;;;;;;;42.83;19.20;;;3.30;99.90;;;;;;5044623;28;20448;-54
2022/12/19 12:09:27;;;;;;;42.00;19.90;;;3.40;99.90;;;;;;5052684;28;20801;-54
2022/12/19 12:12:18;;;;;;;38.60;18.67;;;3.40;99.90;;;;;;5049730;28;20479;-54
2022/12/19 12:14:55;;;;;;;39.93;19.63;;;3.40;99.90;;;;;;5045363;28;20838;-54
2022/12/19 12:17:43;;;;;;;36.80;19.40;;;3.40;99.90;;;;;;5039955;28;20953;-54
2022/12/19 12:20:38;;;;;;;32.90;18.50;;;3.40;99.90;;;;;;5044243;28;20456;-54
2022/12/19 12:23:36;;;;;;;35.70;19.90;;;3.50;99.90;;;;;;5042622;28;20469;-54
2022/12/19 12:26:12;;;;;;;52.57;19.57;;;3.60;99.90;;;;;;5016586;28;20529;-54
2022/12/19 12:29:06;;;;;;;42.23;19.67;;;3.60;99.90;;;;;;5050730;28;20405;-53
2022/12/19 12:32:07;;;;;;;37.13;19.77;;;3.60;99.90;;;;;;5031059;28;20829;-55
2022/12/19 12:34:35;;;;;;;38.27;19.13;;;3.70;99.90;;;;;;5024954;28;20456;-54
2022/12/19 12:37:43;;;;;;;40.37;19.57;;;3.80;99.90;;;;;;5050767;28;20416;-54
2022/12/19 12:40:49;;;;;;;40.90;18.70;;;4.00;99.90;;;;;;5020789;28;20498;-54
2022/12/19 12:43:23;;;;;;;35.20;17.80;;;4.20;99.90;;;;;;5050747;28;20946;-54
2022/12/19 12:45:48;;;;;;;36.13;18.17;;;4.30;99.90;;;;;;5049318;28;20482;-54
2022/12/19 12:48:40;;;;;;;31.17;17.00;;;4.40;99.90;;;;;;5043598;28;20448;-54
2022/12/19 12:51:07;;;;;;;35.97;18.40;;;4.50;99.90;;;;;;5049475;28;20201;-53
2022/12/19 12:53:37;;;;;;;34.60;18.80;;;4.70;99.90;;;;;;5051083;28;20405;-54
2022/12/19 12:56:05;;;;;;;31.40;18.57;;;4.70;99.90;;;;;;5050533;28;20405;-54
2022/12/19 12:58:45;;;;;;;38.73;20.03;;;4.80;99.90;;;;;;5050669;28;20782;-54
2022/12/19 13:01:28;;;;;;;32.00;18.60;;;4.80;99.90;;;;;;5050995;28;20428;-54
2022/12/19 13:04:10;;;;;;;34.83;19.77;;;4.90;99.90;;;;;;5047853;28;20985;-54
2022/12/19 13:06:41;;;;;;;38.00;21.33;;;4.90;99.90;;;;;;5048240;28;20451;-55
2022/12/19 13:09:07;;;;;;;35.03;20.33;;;5.00;99.90;;;;;;5049129;28;20539;-56